Time;durP1;ratioP1;P1;durP2;ratioP2;P2;SDS_P1;SDS_P2;PMS_P1;PMS_P2;Temp;Humidity;BMP_temperature;BMP_pressure;BME280_temperature;BME280_humidity;BME280_pressure;Samples;Min_cycle;Max_cycle;Signal;HPM_P1;HPM_P2
2023/01/28 00:01:46;;;;;;;31.90;28.90;;;;;;;-1.65;76.52;98224.05;108878;1297;22250;-83
2023/01/28 00:04:14;;;;;;;32.50;29.40;;;;;;;-1.63;76.54;98219.49;108862;1297;22852;-83
2023/01/28 00:06:42;;;;;;;33.50;30.50;;;;;;;-1.63;76.63;98221.67;108849;1297;22242;-83
2023/01/28 00:09:10;;;;;;;33.20;30.20;;;;;;;-1.60;76.76;98224.63;108887;1297;22314;-83
2023/01/28 00:11:38;;;;;;;33.50;30.40;;;;;;;-1.57;76.78;98222.14;108875;1297;22247;-83
2023/01/28 00:14:06;;;;;;;34.30;31.00;;;;;;;-1.61;76.45;98224.75;108873;1297;22249;-83
2023/01/28 00:16:34;;;;;;;34.80;31.40;;;;;;;-1.64;76.74;98224.45;108868;1297;22293;-83
2023/01/28 00:19:02;;;;;;;33.80;30.70;;;;;;;-1.65;76.60;98222.39;108864;1297;22933;-84
2023/01/28 00:21:30;;;;;;;36.00;32.80;;;;;;;-1.68;76.47;98225.81;108851;1297;22208;-83
2023/01/28 00:23:57;;;;;;;36.80;33.50;;;;;;;-1.72;76.60;98228.02;108845;1297;22894;-83
2023/01/28 00:26:26;;;;;;;35.60;32.20;;;;;;;-1.76;76.28;98229.52;108864;1297;22956;-87
2023/01/28 00:28:54;;;;;;;31.60;28.50;;;;;;;-1.76;76.62;98232.48;108865;1297;22135;-86
2023/01/28 00:31:26;;;;;;;29.40;26.70;;;;;;;-1.71;76.61;98231.84;108663;1297;22205;-84
2023/01/28 00:33:56;;;;;;;32.00;28.80;;;;;;;-1.72;76.59;98229.13;108693;1297;22183;-84
2023/01/28 00:36:25;;;;;;;30.30;27.50;;;;;;;-1.74;76.93;98233.93;108634;1284;22288;-84
2023/01/28 00:38:56;;;;;;;33.10;30.00;;;;;;;-1.82;76.67;98228.85;108456;1294;22223;-83
2023/01/28 00:41:26;;;;;;;31.90;29.00;;;;;;;-1.86;76.79;98231.51;108566;1292;23047;-83
2023/01/28 00:43:54;;;;;;;33.00;29.90;;;;;;;-1.94;76.64;98228.67;108793;1297;22825;-83
2023/01/28 00:46:25;;;;;;;33.00;29.90;;;;;;;-2.01;76.92;98226.63;108797;1297;22877;-83
2023/01/28 00:48:53;;;;;;;30.40;27.50;;;;;;;-2.09;77.13;98221.22;108798;1297;22238;-83
2023/01/28 00:51:21;;;;;;;32.30;29.30;;;;;;;-2.09;77.37;98220.64;108793;1297;23387;-83
2023/01/28 00:53:49;;;;;;;31.90;29.00;;;;;;;-2.10;77.37;98221.78;108715;1297;22173;-84
2023/01/28 00:56:18;;;;;;;34.70;31.60;;;;;;;-2.17;77.57;98219.56;108799;1297;22192;-84
2023/01/28 00:58:46;;;;;;;33.40;30.20;;;;;;;-2.20;77.66;98219.34;108854;1297;22279;-83
2023/01/28 01:01:18;;;;;;;31.90;29.00;;;;;;;-2.21;77.62;98213.58;108855;1297;22164;-84
2023/01/28 01:03:56;;;;;;;32.50;29.50;;;;;;;-2.24;77.81;98212.98;108579;1297;22231;-83
2023/01/28 01:06:24;;;;;;;33.20;30.10;;;;;;;-2.22;78.05;98217.44;108877;1297;22218;-84
2023/01/28 01:08:52;;;;;;;35.70;32.40;;;;;;;-2.19;77.91;98221.23;108861;1297;22386;-83
2023/01/28 01:11:20;;;;;;;33.70;30.70;;;;;;;-2.18;77.91;98220.74;108854;1297;22335;-83
2023/01/28 01:13:54;;;;;;;38.30;34.60;;;;;;;-2.19;77.92;98219.42;108689;1297;22948;-83
2023/01/28 01:16:30;;;;;;;36.70;33.30;;;;;;;-2.22;78.02;98223.13;108738;1297;22984;-83
2023/01/28 01:18:59;;;;;;;34.30;31.00;;;;;;;-2.23;78.26;98225.93;108848;1297;22256;-83
2023/01/28 01:21:29;;;;;;;37.10;33.40;;;;;;;-2.19;78.32;98225.08;108811;1297;22403;-83
2023/01/28 01:23:57;;;;;;;36.20;32.80;;;;;;;-2.16;78.35;98225.77;108873;1297;22333;-83
2023/01/28 01:26:26;;;;;;;37.60;34.00;;;;;;;-2.18;78.46;98223.76;108862;1297;22244;-83
2023/01/28 01:28:57;;;;;;;35.50;32.30;;;;;;;-2.22;78.32;98228.81;108850;1297;22239;-83
2023/01/28 01:31:25;;;;;;;36.20;32.90;;;;;;;-2.22;78.38;98236.13;108861;1297;22259;-83
2023/01/28 01:33:53;;;;;;;36.10;32.70;;;;;;;-2.20;78.31;98238.92;108875;1297;22223;-83
2023/01/28 01:36:22;;;;;;;35.40;32.10;;;;;;;-2.21;78.46;98237.30;108818;1297;22272;-83
2023/01/28 01:38:54;;;;;;;34.80;31.50;;;;;;;-2.24;78.75;98235.77;108879;1297;22234;-81
2023/01/28 01:41:22;;;;;;;36.90;33.60;;;;;;;-2.23;78.61;98238.85;108888;1297;22223;-84
2023/01/28 01:43:59;;;;;;;39.90;36.20;;;;;;;-2.21;78.66;98243.55;108881;1297;22282;-84
2023/01/28 01:46:42;;;;;;;38.50;35.10;;;;;;;-2.23;78.87;98244.46;108682;1297;22271;-83
2023/01/28 01:49:21;;;;;;;37.00;33.50;;;;;;;-2.23;78.91;98246.04;108860;1297;22273;-84
2023/01/28 01:52:02;;;;;;;39.80;36.10;;;;;;;-2.26;79.26;98245.80;108694;1297;22310;-84
2023/01/28 01:54:32;;;;;;;38.10;34.60;;;;;;;-2.25;79.31;98248.30;108811;1297;23443;-84
2023/01/28 01:57:03;;;;;;;39.50;35.70;;;;;;;-2.24;79.33;98249.86;108853;1297;22230;-84
2023/01/28 01:59:32;;;;;;;40.40;36.70;;;;;;;-2.26;79.21;98247.91;108568;1297;23253;-83
2023/01/28 02:02:04;;;;;;;38.20;34.70;;;;;;;-2.26;79.14;98251.48;108846;1297;22235;-84
2023/01/28 02:04:37;;;;;;;36.40;33.10;;;;;;;-2.24;79.31;98253.50;108673;1297;22270;-84
2023/01/28 02:07:07;;;;;;;35.70;32.40;;;;;;;-2.23;79.18;98250.91;108886;1297;22232;-84
2023/01/28 02:09:37;;;;;;;36.70;33.40;;;;;;;-2.20;79.33;98253.77;108676;1297;22978;-83
2023/01/28 02:12:11;;;;;;;36.00;32.40;;;;;;;-2.15;79.42;98260.79;108872;1297;22153;-84
2023/01/28 02:14:48;;;;;;;38.20;34.80;;;;;;;-2.14;79.45;98263.35;108872;1297;22967;-84
2023/01/28 02:17:17;;;;;;;40.60;37.00;;;;;;;-2.11;79.35;98266.76;108849;1297;22295;-84
2023/01/28 02:19:53;;;;;;;39.60;35.90;;;;;;;-2.10;79.26;98262.60;108720;1297;22158;-84
2023/01/28 02:22:58;;;;;;;39.60;35.90;;;;;;;-2.11;79.33;98263.45;108904;1289;22175;-84
2023/01/28 02:25:53;;;;;;;38.80;35.10;;;;;;;-2.13;79.09;98263.38;108867;1297;22081;-82
2023/01/28 02:28:39;;;;;;;36.60;33.20;;;;;;;-2.15;79.35;98259.77;108838;1297;22075;-83
2023/01/28 02:31:29;;;;;;;35.50;32.20;;;;;;;-2.10;79.46;98260.38;108863;1297;22377;-83
2023/01/28 02:34:29;;;;;;;36.10;32.90;;;;;;;-2.01;79.43;98262.53;108829;1297;22992;-83
2023/01/28 02:37:03;;;;;;;36.10;32.80;;;;;;;-1.97;79.46;98264.71;108839;1276;22234;-83
2023/01/28 02:39:41;;;;;;;36.50;33.00;;;;;;;-1.93;79.48;98270.19;108869;1297;22258;-83
2023/01/28 02:42:18;;;;;;;37.10;33.60;;;;;;;-1.91;79.39;98271.36;108880;1297;22204;-83
2023/01/28 02:44:47;;;;;;;36.90;33.70;;;;;;;-1.89;79.61;98270.86;108841;1297;22234;-82
2023/01/28 02:50:07;;;;;;;41.80;37.90;;;;;;;-1.86;79.49;98273.95;108837;1297;22284;-82
2023/01/28 02:55:48;;;;;;;35.60;32.30;;;;;;;-1.86;79.48;98271.45;108853;1297;22300;-83
2023/01/28 02:58:43;;;;;;;36.80;33.40;;;;;;;-1.84;79.49;98269.09;108862;1297;22304;-82
2023/01/28 03:01:25;;;;;;;32.90;29.90;;;;;;;-1.80;79.54;98271.95;108844;1297;22235;-82
2023/01/28 03:04:07;;;;;;;34.30;31.00;;;;;;;-1.80;79.73;98268.98;108856;1296;22202;-83
2023/01/28 03:06:49;;;;;;;35.00;31.70;;;;;;;-1.82;79.89;98267.77;108862;1297;22973;-82
2023/01/28 03:09:26;;;;;;;35.10;31.80;;;;;;;-1.90;79.59;98271.67;108859;1297;22830;-82
2023/01/28 03:38:21;;;;;;;35.80;32.40;;;;;;;-2.18;80.14;98273.23;108829;1297;23072;-82
2023/01/28 03:41:02;;;;;;;36.80;33.30;;;;;;;-2.19;80.62;98275.30;108816;1297;22152;-82
2023/01/28 03:43:31;;;;;;;34.40;31.30;;;;;;;-2.18;80.56;98274.37;108674;1297;23040;-83
2023/01/28 03:45:59;;;;;;;34.30;31.20;;;;;;;-2.14;80.96;98273.84;108679;1297;22840;-82
2023/01/28 03:48:28;;;;;;;36.10;32.80;;;;;;;-2.17;80.99;98274.16;108850;1297;22187;-82
2023/01/28 03:50:59;;;;;;;37.60;34.10;;;;;;;-2.19;80.98;98272.59;108860;1297;23509;-83
2023/01/28 03:53:27;;;;;;;37.20;33.70;;;;;;;-2.20;80.77;98272.47;108731;1297;22136;-83
2023/01/28 03:55:57;;;;;;;35.30;32.10;;;;;;;-2.20;80.84;98273.08;108826;1297;22235;-82
2023/01/28 03:58:39;;;;;;;34.80;31.70;;;;;;;-2.18;80.69;98276.64;108854;1297;22223;-82
2023/01/28 04:01:07;;;;;;;35.10;31.90;;;;;;;-2.15;80.67;98274.40;108719;1297;22246;-81
2023/01/28 04:03:35;;;;;;;33.60;30.50;;;;;;;-2.11;81.04;98274.71;108816;1297;22209;-81
2023/01/28 04:06:09;;;;;;;34.40;31.30;;;;;;;-2.07;80.80;98274.78;108825;1297;22751;-81
2023/01/28 04:09:12;;;;;;;35.80;32.50;;;;;;;-2.09;81.10;98271.78;108815;1297;22189;-81
2023/01/28 04:12:03;;;;;;;37.30;34.00;;;;;;;-2.11;80.98;98275.66;108656;1297;22210;-81
2023/01/28 04:14:36;;;;;;;48.70;44.20;;;;;;;-2.12;81.20;98275.48;108817;1297;22248;-81
2023/01/28 04:17:09;;;;;;;36.50;33.30;;;;;;;-2.13;80.86;98272.56;108798;1288;22250;-82
2023/01/28 04:19:39;;;;;;;35.20;31.80;;;;;;;-2.14;81.09;98275.41;108644;1297;22980;-81
2023/01/28 04:22:10;;;;;;;36.40;32.90;;;;;;;-2.15;81.05;98278.78;108658;1297;22147;-81
2023/01/28 04:24:40;;;;;;;33.20;30.20;;;;;;;-2.12;81.22;98277.73;108805;1297;22847;-81
2023/01/28 04:27:08;;;;;;;32.30;29.30;;;;;;;-2.07;81.15;98278.77;108848;1297;23088;-82
2023/01/28 04:29:36;;;;;;;33.20;30.30;;;;;;;-2.01;81.22;98278.91;108846;1297;22174;-82
2023/01/28 04:32:37;;;;;;;35.70;32.60;;;;;;;-2.01;81.05;98279.63;108622;1297;22122;-83
2023/01/28 04:35:31;;;;;;;36.30;33.00;;;;;;;-2.03;81.00;98283.34;108610;1297;22263;-83
2023/01/28 04:38:07;;;;;;;34.60;31.40;;;;;;;-2.06;81.29;98281.64;108794;1297;22213;-83
2023/01/28 04:40:57;;;;;;;32.70;29.70;;;;;;;-2.12;81.24;98284.70;108669;1297;22241;-83
2023/01/28 04:43:31;;;;;;;33.80;30.60;;;;;;;-2.12;81.36;98289.95;108659;1297;23056;-84
2023/01/28 04:46:26;;;;;;;;;;;;;;;-2.08;81.31;98290.59;108711;1297;22501;-83
2023/01/28 04:49:12;;;;;;;31.60;28.90;;;;;;;-2.07;81.59;98290.17;108878;1297;22922;-84
2023/01/28 04:51:47;;;;;;;33.40;30.40;;;;;;;-2.07;81.44;98289.72;108668;1297;22415;-83
2023/01/28 04:54:34;;;;;;;36.90;33.50;;;;;;;-2.08;81.51;98287.55;108845;1297;22238;-83
2023/01/28 04:57:04;;;;;;;38.40;34.90;;;;;;;-2.10;81.48;98290.80;108822;1283;22885;-83
2023/01/28 04:59:34;;;;;;;32.30;29.40;;;;;;;-2.10;81.43;98287.83;108656;1297;22989;-83
2023/01/28 05:02:02;;;;;;;33.70;30.50;;;;;;;-2.10;81.42;98285.55;108854;1297;22245;-83
2023/01/28 05:04:32;;;;;;;31.40;28.40;;;;;;;-2.07;81.62;98293.10;108802;1289;22224;-83
2023/01/28 05:07:01;;;;;;;34.10;31.00;;;;;;;-2.02;81.47;98292.20;108658;1297;22912;-83
2023/01/28 05:09:32;;;;;;;34.30;31.10;;;;;;;-2.00;81.67;98295.77;108791;1297;22900;-83
2023/01/28 05:12:00;;;;;;;34.10;30.90;;;;;;;-2.00;81.65;98304.86;108801;1297;22988;-83
2023/01/28 05:14:31;;;;;;;34.70;30.70;;;;;;;-2.01;81.57;98305.16;108657;1297;22216;-85
2023/01/28 05:17:08;;;;;;;37.00;33.60;;;;;;;-2.02;81.68;98303.68;108692;1297;22221;-83
2023/01/28 05:19:36;;;;;;;39.70;36.10;;;;;;;-2.04;81.73;98295.00;108665;1297;22227;-83
2023/01/28 05:22:08;;;;;;;34.90;31.80;;;;;;;-2.07;81.58;98298.39;108637;1297;22244;-83
2023/01/28 05:24:41;;;;;;;32.80;29.40;;;;;;;-2.05;81.69;98298.83;108809;1297;23359;-83
2023/01/28 05:27:10;;;;;;;31.20;28.30;;;;;;;-2.00;81.66;98302.31;108665;1297;22194;-83
2023/01/28 05:29:38;;;;;;;32.90;29.90;;;;;;;-1.94;81.69;98301.58;108812;1297;22314;-83
2023/01/28 05:32:06;;;;;;;32.80;29.70;;;;;;;-1.91;81.73;98304.84;108668;1297;22918;-83
2023/01/28 05:34:34;;;;;;;32.40;29.60;;;;;;;-1.92;81.72;98305.52;108672;1297;22291;-83
2023/01/28 05:37:09;;;;;;;38.00;34.60;;;;;;;-1.97;81.75;98306.48;108665;1297;22274;-83
2023/01/28 05:39:38;;;;;;;34.20;31.10;;;;;;;-2.01;81.82;98306.34;108667;1297;22258;-83
2023/01/28 05:42:06;;;;;;;34.50;31.40;;;;;;;-2.03;81.74;98310.03;108795;1297;22306;-83
2023/01/28 05:44:37;;;;;;;32.40;29.20;;;;;;;-2.06;81.72;98309.10;108829;1297;22244;-83
2023/01/28 05:47:15;;;;;;;30.40;27.60;;;;;;;-2.06;81.67;98311.77;108640;1297;23049;-83
2023/01/28 05:49:59;;;;;;;30.40;27.60;;;;;;;-2.03;81.84;98319.16;108807;1297;22869;-83
2023/01/28 05:52:34;;;;;;;33.80;30.60;;;;;;;-2.01;81.81;98326.02;108665;1297;22862;-83
2023/01/28 05:55:03;;;;;;;33.10;30.00;;;;;;;-1.99;81.73;98326.11;108798;1297;22208;-83
2023/01/28 05:57:31;;;;;;;31.80;28.70;;;;;;;-1.99;81.71;98323.76;108832;1297;23092;-83
2023/01/28 05:59:59;;;;;;;32.40;29.40;;;;;;;-2.01;81.91;98328.06;108698;1297;22335;-83
2023/01/28 06:02:27;;;;;;;31.50;28.70;;;;;;;-2.03;81.94;98330.86;108675;1297;22243;-83
2023/01/28 06:04:57;;;;;;;30.30;27.40;;;;;;;-2.05;81.71;98339.48;108661;1297;22219;-83
2023/01/28 06:07:25;;;;;;;29.60;26.70;;;;;;;-2.05;81.77;98343.55;108806;1297;22245;-83
2023/01/28 06:09:53;;;;;;;31.70;28.80;;;;;;;-2.01;81.78;98345.20;108792;1297;22246;-83
2023/01/28 06:12:22;;;;;;;31.90;29.00;;;;;;;-1.99;81.98;98351.09;108788;1297;22267;-83
2023/01/28 06:15:27;;;;;;;34.20;31.10;;;;;;;-2.03;82.11;98355.40;108020;1297;22261;-83
2023/01/28 06:18:25;;;;;;;34.30;31.00;;;;;;;-2.04;82.05;98356.70;108706;1297;22187;-83
2023/01/28 06:20:53;;;;;;;36.10;32.90;;;;;;;-2.04;81.96;98359.44;108786;1297;22833;-83
2023/01/28 06:23:21;;;;;;;33.20;30.30;;;;;;;-2.02;82.12;98362.36;108777;1297;22232;-83
2023/01/28 06:25:56;;;;;;;39.90;36.20;;;;;;;-2.05;81.84;98368.16;108868;1297;22238;-83
2023/01/28 06:28:24;;;;;;;38.10;34.20;;;;;;;-2.10;81.63;98370.70;108807;1297;22224;-82
2023/01/28 06:30:53;;;;;;;34.00;31.00;;;;;;;-2.09;81.98;98372.24;108830;1297;22178;-82
2023/01/28 06:33:23;;;;;;;33.10;29.80;;;;;;;-2.05;81.93;98378.73;108856;1297;22283;-82
2023/01/28 06:35:51;;;;;;;33.00;29.90;;;;;;;-2.02;82.10;98378.00;108817;1297;22828;-82
2023/01/28 06:38:19;;;;;;;31.40;28.40;;;;;;;-2.00;82.01;98375.96;108856;1297;22985;-82
2023/01/28 06:40:51;;;;;;;31.90;29.00;;;;;;;-2.01;82.16;98379.13;108824;1297;22276;-82
2023/01/28 06:43:19;;;;;;;35.00;31.70;;;;;;;-2.08;81.94;98377.64;108792;1297;22345;-82
2023/01/28 06:45:47;;;;;;;33.70;30.60;;;;;;;-2.09;81.87;98384.34;108827;1297;22254;-82
2023/01/28 06:48:15;;;;;;;31.70;28.80;;;;;;;-2.11;82.07;98379.85;108795;1297;22234;-82
2023/01/28 06:50:45;;;;;;;33.70;30.70;;;;;;;-2.11;82.18;98384.80;108850;1297;22257;-82
2023/01/28 06:53:14;;;;;;;34.10;30.70;;;;;;;-2.09;82.12;98386.98;108836;1297;22305;-82
2023/01/28 06:55:42;;;;;;;42.10;37.80;;;;;;;-2.07;81.96;98389.09;108827;1297;22117;-83
2023/01/28 06:58:10;;;;;;;38.40;34.70;;;;;;;-2.00;81.96;98394.48;108659;1297;23448;-83
2023/01/28 07:00:38;;;;;;;38.30;34.40;;;;;;;-1.97;81.97;98393.67;108829;1297;22371;-82
2023/01/28 07:03:06;;;;;;;35.80;32.10;;;;;;;-1.96;81.93;98399.69;108846;1297;22131;-82
2023/01/28 07:05:35;;;;;;;35.80;32.00;;;;;;;-2.00;82.03;98398.81;108852;1297;22209;-82
2023/01/28 07:08:03;;;;;;;39.80;35.70;;;;;;;-2.02;81.82;98395.55;108838;1297;22979;-82
2023/01/28 07:10:31;;;;;;;39.40;35.70;;;;;;;-2.04;81.88;98406.27;108857;1297;22288;-84
2023/01/28 07:12:59;;;;;;;35.90;32.20;;;;;;;-2.08;81.75;98406.44;108827;1297;22182;-82
2023/01/28 07:15:27;;;;;;;31.40;27.60;;;;;;;-2.11;81.74;98413.06;108833;1297;22308;-82
2023/01/28 07:17:55;;;;;;;30.40;27.60;;;;;;;-2.08;82.05;98413.48;108805;1297;22331;-85
2023/01/28 07:20:23;;;;;;;30.50;27.60;;;;;;;-2.07;81.90;98415.38;108868;1273;22222;-86
2023/01/28 07:22:51;;;;;;;33.30;30.10;;;;;;;-2.07;81.98;98417.82;108833;1297;22225;-86
2023/01/28 07:25:19;;;;;;;30.70;27.80;;;;;;;-2.07;82.02;98418.27;108840;1297;22190;-87
2023/01/28 07:27:51;;;;;;;33.50;30.40;;;;;;;-2.09;81.69;98418.84;108849;1297;22217;-87
2023/01/28 07:30:20;;;;;;;30.30;27.40;;;;;;;-2.10;81.83;98417.52;108833;1297;22316;-87
2023/01/28 07:32:55;;;;;;;29.60;26.60;;;;;;;-2.08;81.82;98419.48;108706;1297;22225;-90
2023/01/28 07:35:24;;;;;;;29.30;26.70;;;;;;;-2.03;81.74;98422.60;108999;1297;22262;-88
2023/01/28 07:37:55;;;;;;;30.40;27.50;;;;;;;-1.94;82.10;98418.30;109029;1297;22897;-88
2023/01/28 07:40:24;;;;;;;29.70;27.00;;;;;;;-1.88;82.09;98418.08;109133;1297;22144;-89
2023/01/28 07:42:54;;;;;;;32.20;29.10;;;;;;;-1.84;82.13;98415.67;109178;1297;22272;-88
2023/01/28 07:45:23;;;;;;;31.30;28.50;;;;;;;-1.81;82.02;98414.04;109150;1297;22222;-88
2023/01/28 07:47:58;;;;;;;32.90;29.80;;;;;;;-1.80;82.06;98417.69;109244;1297;22631;-88
2023/01/28 07:50:28;;;;;;;34.40;31.20;;;;;;;-1.82;81.97;98418.77;108770;1297;23065;-88
2023/01/28 07:52:56;;;;;;;34.20;31.10;;;;;;;-1.84;81.93;98421.65;108980;1297;22926;-90
2023/01/28 07:55:24;;;;;;;30.00;27.10;;;;;;;-1.83;81.89;98426.80;108988;1297;22845;-91
2023/01/28 07:57:54;;;;;;;28.10;25.40;;;;;;;-1.80;81.63;98428.02;108910;1297;22580;-91
2023/01/28 08:00:23;;;;;;;28.50;25.90;;;;;;;-1.78;81.51;98431.02;108894;1297;22186;-90
2023/01/28 08:02:57;;;;;;;29.20;26.50;;;;;;;-1.73;81.68;98432.52;108917;1297;22220;-90
2023/01/28 08:05:28;;;;;;;29.50;26.80;;;;;;;-1.71;81.85;98432.39;109001;1297;22247;-90
2023/01/28 08:07:57;;;;;;;28.20;25.80;;;;;;;-1.71;81.65;98430.16;109166;1297;22332;-89
2023/01/28 08:10:25;;;;;;;30.70;28.10;;;;;;;-1.76;81.55;98436.80;108859;1297;22211;-90
2023/01/28 08:12:57;;;;;;;30.50;27.70;;;;;;;-1.77;81.48;98438.70;109072;1297;22303;-92
2023/01/28 08:15:26;;;;;;;30.90;28.00;;;;;;;-1.76;81.66;98435.75;109029;1297;22182;-90
2023/01/28 08:17:58;;;;;;;30.00;27.40;;;;;;;-1.73;81.69;98437.48;108780;1297;22257;-91
2023/01/28 08:20:28;;;;;;;30.50;27.70;;;;;;;-1.68;81.76;98438.92;108883;1297;22362;-89
2023/01/28 08:23:11;;;;;;;28.20;25.60;;;;;;;-1.59;81.80;98437.04;108935;1297;23173;-88
2023/01/28 08:25:40;;;;;;;32.40;29.20;;;;;;;-1.50;81.54;98432.79;108865;1297;22225;-90
2023/01/28 08:28:08;;;;;;;33.10;30.30;;;;;;;-1.46;81.44;98431.04;108871;1297;22267;-89
2023/01/28 08:30:37;;;;;;;32.10;29.00;;;;;;;-1.46;81.21;98434.08;108869;1297;22180;-87
2023/01/28 08:33:07;;;;;;;30.40;27.50;;;;;;;-1.48;81.40;98438.52;108888;1297;22247;-90
2023/01/28 08:35:36;;;;;;;29.50;26.90;;;;;;;-1.49;81.09;98442.23;108877;1297;22210;-90
2023/01/28 08:38:05;;;;;;;28.30;25.80;;;;;;;-1.51;81.27;98442.59;108682;1297;22207;-90
2023/01/28 08:40:34;;;;;;;31.90;29.00;;;;;;;-1.51;81.38;98443.77;108851;1297;22905;-89
2023/01/28 08:43:02;;;;;;;31.00;28.20;;;;;;;-1.51;81.28;98447.50;108709;1297;22240;-91
2023/01/28 08:45:31;;;;;;;26.40;24.00;;;;;;;-1.49;81.32;98451.17;108929;1297;22399;-90
2023/01/28 08:48:07;;;;;;;24.20;21.90;;;;;;;-1.46;81.19;98452.30;108847;1297;22979;-90
2023/01/28 08:50:38;;;;;;;26.40;23.90;;;;;;;-1.43;81.25;98455.91;108881;1297;22214;-88
2023/01/28 08:53:10;;;;;;;27.00;24.50;;;;;;;-1.41;81.24;98452.94;108873;1297;22286;-88
2023/01/28 08:55:38;;;;;;;28.30;25.90;;;;;;;-1.40;81.30;98458.45;108881;1297;22313;-89
2023/01/28 08:58:12;;;;;;;31.80;28.70;;;;;;;-1.40;81.19;98456.19;108943;1297;22312;-88
2023/01/28 09:00:41;;;;;;;28.40;25.90;;;;;;;-1.38;81.24;98455.41;108988;1297;22175;-89
2023/01/28 09:03:08;;;;;;;30.00;27.20;;;;;;;-1.38;81.00;98459.64;108797;1297;22275;-89
2023/01/28 09:05:37;;;;;;;30.70;27.80;;;;;;;-1.38;81.11;98457.94;109033;1297;23097;-91
2023/01/28 09:08:08;;;;;;;29.30;26.70;;;;;;;-1.36;81.06;98459.42;108934;1297;22303;-90
2023/01/28 09:10:37;;;;;;;28.90;26.30;;;;;;;-1.37;80.95;98459.35;109018;1297;22268;-93
2023/01/28 09:13:07;;;;;;;30.10;27.30;;;;;;;-1.34;80.86;98456.49;109047;1278;23291;-92
2023/01/28 09:15:36;;;;;;;31.30;28.50;;;;;;;-1.30;80.88;98460.58;108972;1278;22337;-92
2023/01/28 09:18:07;;;;;;;26.30;23.80;;;;;;;-1.28;81.06;98463.67;108966;1296;22890;-86
2023/01/28 09:20:36;;;;;;;31.70;28.60;;;;;;;-1.26;80.99;98462.25;109192;1290;22167;-91
2023/01/28 09:23:05;;;;;;;153.50;32.50;;;;;;;-1.24;80.98;98466.26;109256;1294;22257;-91
2023/01/28 09:25:35;;;;;;;39.90;36.20;;;;;;;-1.25;80.35;98466.19;109219;1295;22216;-87
2023/01/28 09:28:04;;;;;;;29.80;27.00;;;;;;;-1.31;80.12;98467.21;108718;1296;22990;-88
2023/01/28 09:30:32;;;;;;;27.80;25.20;;;;;;;-1.35;80.17;98466.13;108891;1288;22219;-86
2023/01/28 09:33:04;;;;;;;28.70;26.00;;;;;;;-1.34;80.42;98464.27;108946;1276;22557;-86
2023/01/28 09:35:33;;;;;;;26.60;24.20;;;;;;;-1.29;80.58;98468.31;108780;1292;22121;-86
2023/01/28 09:38:01;;;;;;;26.80;24.30;;;;;;;-1.27;80.74;98472.45;109045;1295;22083;-85
2023/01/28 09:40:50;;;;;;;24.70;22.50;;;;;;;-1.25;80.68;98468.67;108999;1296;22142;-87
2023/01/28 09:43:26;;;;;;;34.10;31.10;;;;;;;-1.25;80.58;98470.99;108965;1296;22305;-90
2023/01/28 09:45:59;;;;;;;35.00;31.70;;;;;;;-1.25;80.14;98467.85;108969;1286;22296;-90
2023/01/28 09:48:33;;;;;;;25.00;22.70;;;;;;;-1.28;80.28;98470.92;108941;1296;22104;-90
2023/01/28 09:51:01;;;;;;;24.30;22.20;;;;;;;-1.29;80.15;98472.95;109033;1296;22866;-91
2023/01/28 09:53:30;;;;;;;39.20;35.60;;;;;;;-1.32;79.54;98476.05;109056;1296;22826;-84
2023/01/28 09:56:05;;;;;;;43.60;39.70;;;;;;;-1.38;79.34;98476.07;108943;1296;22686;-89
2023/01/28 09:58:33;;;;;;;35.20;32.00;;;;;;;-1.40;79.63;98473.67;108990;1289;22219;-89
2023/01/28 10:01:19;;;;;;;31.30;28.60;;;;;;;-1.42;79.83;98471.80;108983;1296;22258;-90
2023/01/28 10:04:09;;;;;;;33.20;30.20;;;;;;;-1.40;79.95;98466.96;108997;1292;22165;-88
2023/01/28 10:06:49;;;;;;;33.10;29.90;;;;;;;-1.37;79.96;98473.79;109048;1296;23000;-88
2023/01/28 10:09:47;;;;;;;27.10;24.50;;;;;;;-1.44;78.97;98467.47;109008;1296;22293;-82
2023/01/28 10:12:22;;;;;;;29.60;26.80;;;;;;;-1.54;78.68;98468.21;108979;1296;22251;-80
2023/01/28 10:15:19;;;;;;;25.00;22.70;;;;;;;-1.56;78.98;98465.66;108974;1296;22297;-82
2023/01/28 10:17:50;;;;;;;28.00;25.50;;;;;;;-1.56;78.99;98465.40;108953;1296;22135;-82
2023/01/28 10:20:32;;;;;;;27.40;24.60;;;;;;;-1.56;78.88;98463.90;108987;1296;22186;-81
2023/01/28 10:23:23;;;;;;;28.90;26.30;;;;;;;-1.64;78.49;98463.40;108975;1296;22328;-81
2023/01/28 10:25:56;;;;;;;28.10;25.60;;;;;;;-1.69;79.13;98463.12;108958;1295;22348;-82
2023/01/28 10:28:28;;;;;;;25.80;23.40;;;;;;;-1.63;79.37;98459.70;108888;1289;22388;-81
2023/01/28 10:30:56;;;;;;;23.50;21.50;;;;;;;-1.58;79.08;98464.00;108744;1296;22240;-83
2023/01/28 10:33:34;;;;;;;24.30;22.10;;;;;;;-1.52;79.44;98465.64;108837;1297;22309;-80
2023/01/28 10:36:03;;;;;;;23.40;21.10;;;;;;;-1.40;79.38;98469.81;108802;1298;22254;-82
2023/01/28 10:38:31;;;;;;;25.70;23.40;;;;;;;-1.37;79.28;98466.18;108843;1297;22420;-82
2023/01/28 10:41:03;;;;;;;24.10;22.00;;;;;;;-1.35;79.32;98470.04;108850;1297;22386;-83
2023/01/28 10:43:36;;;;;;;23.00;20.90;;;;;;;-1.33;79.09;98467.31;108811;1297;22367;-82
2023/01/28 10:46:16;;;;;;;27.00;24.60;;;;;;;-1.37;78.88;98468.05;108820;1297;22227;-83
2023/01/28 10:49:02;;;;;;;29.40;26.80;;;;;;;-1.38;79.19;98464.56;108824;1297;23099;-84
2023/01/28 10:51:31;;;;;;;23.20;21.10;;;;;;;-1.33;79.07;98467.19;108833;1297;22888;-89
2023/01/28 10:53:59;;;;;;;21.80;19.60;;;;;;;-1.13;80.32;98459.88;108821;1297;22246;-82
2023/01/28 10:56:34;;;;;;;22.30;20.20;;;;;;;-0.22;81.11;98458.67;108843;1289;22464;-81
2023/01/28 10:59:05;;;;;;;20.90;19.00;;;;;;;-0.07;79.33;98458.94;108822;1297;22266;-80
2023/01/28 11:01:43;;;;;;;27.70;25.30;;;;;;;-0.33;78.06;98457.50;108631;1292;22398;-84
2023/01/28 11:04:22;;;;;;;27.30;24.80;;;;;;;-0.63;78.36;98463.23;108831;1279;22332;-83
2023/01/28 11:06:55;;;;;;;26.40;24.10;;;;;;;-0.76;78.18;98462.52;108816;1297;22272;-82
2023/01/28 11:09:30;;;;;;;29.30;26.60;;;;;;;-0.88;78.49;98463.11;108852;1297;22247;-82
2023/01/28 11:12:09;;;;;;;;;;;;;;;-0.88;78.98;98456.64;108868;1293;23191;-84
2023/01/28 11:14:37;;;;;;;28.30;25.60;;;;;;;-0.86;77.98;98454.70;108694;1297;22139;-83
2023/01/28 11:17:16;;;;;;;29.60;26.90;;;;;;;-0.94;78.30;98451.70;108774;1297;22219;-83
2023/01/28 11:19:44;;;;;;;26.40;24.00;;;;;;;-0.98;78.31;98445.77;108764;1292;23087;-82
2023/01/28 11:22:31;;;;;;;30.60;23.50;;;;;;;-0.96;78.36;98451.14;108840;1297;23100;-84
2023/01/28 11:25:03;;;;;;;25.70;23.30;;;;;;;-0.84;79.05;98452.10;108868;1297;22266;-85
2023/01/28 11:27:32;;;;;;;25.40;23.20;;;;;;;-0.75;78.79;98451.94;108888;1296;23089;-85
2023/01/28 11:30:03;;;;;;;22.80;20.90;;;;;;;-0.70;78.61;98451.30;108748;1297;22177;-84
2023/01/28 11:32:31;;;;;;;49.80;45.20;;;;;;;-0.70;78.66;98450.93;108868;1297;22229;-85
2023/01/28 11:34:59;;;;;;;38.30;34.90;;;;;;;-0.71;78.77;98452.45;108724;1297;171659;-87
2023/01/28 11:37:30;;;;;;;36.60;33.60;;;;;;;-0.71;78.76;98450.48;108825;1297;22895;-84
2023/01/28 11:40:19;;;;;;;31.80;29.00;;;;;;;-0.74;78.69;98452.20;108695;1297;22219;-83
2023/01/28 11:42:51;;;;;;;31.40;28.70;;;;;;;-0.75;79.05;98448.16;108860;1297;22198;-83
2023/01/28 11:45:28;;;;;;;30.10;27.50;;;;;;;-0.70;79.35;98450.31;108739;1285;22324;-85
2023/01/28 11:48:17;;;;;;;36.50;33.30;;;;;;;-0.54;79.22;98450.19;108869;1297;23026;-85
2023/01/28 11:50:55;;;;;;;35.00;31.70;;;;;;;-0.34;79.77;98448.21;108881;1290;22261;-84
2023/01/28 11:53:23;;;;;;;29.90;27.30;;;;;;;-0.19;78.89;98441.98;108857;1296;22264;-82
2023/01/28 11:56:12;;;;;;;29.60;27.00;;;;;;;-0.18;78.65;98440.16;108784;1297;23061;-84
2023/01/28 11:58:55;;;;;;;27.50;25.10;;;;;;;-0.27;78.34;98439.65;108769;1297;22313;-85
2023/01/28 12:01:34;;;;;;;29.60;26.80;;;;;;;-0.40;78.41;98438.44;108767;1297;22337;-84
2023/01/28 12:04:57;;;;;;;30.00;27.10;;;;;;;-0.50;77.98;98438.64;108763;1297;22221;-85
2023/01/28 12:07:46;;;;;;;33.80;31.10;;;;;;;-0.70;77.89;98437.52;107986;1304;22290;-84
2023/01/28 12:10:27;;;;;;;29.50;26.90;;;;;;;-0.62;77.87;98441.84;107979;1304;22303;-87